Time;durP1;ratioP1;P1;durP2;ratioP2;P2;SDS_P1;SDS_P2;PMS_P1;PMS_P2;Temp;Humidity;BMP_temperature;BMP_pressure;BME280_temperature;BME280_humidity;BME280_pressure;Samples;Min_cycle;Max_cycle;Signal;HPM_P1;HPM_P2
2023/03/31 00:01:43;;;;;;;2.00;0.98;;;21.30;51.00;;;;;;5042454;28;20650;-63
2023/03/31 00:04:12;;;;;;;2.53;1.00;;;21.30;51.00;;;;;;5037723;28;20025;-63
2023/03/31 00:06:40;;;;;;;1.35;0.80;;;21.30;51.00;;;;;;5042103;28;20041;-63
2023/03/31 00:09:08;;;;;;;1.90;1.00;;;21.30;51.40;;;;;;5038524;28;20092;-63
2023/03/31 00:11:35;;;;;;;1.30;1.00;;;21.20;50.90;;;;;;5042841;28;20112;-63
2023/03/31 00:14:01;;;;;;;1.58;1.00;;;21.20;50.80;;;;;;5040762;28;20021;-63
2023/03/31 00:16:26;;;;;;;1.27;0.90;;;21.30;50.90;;;;;;5037489;28;20022;-63
2023/03/31 00:18:52;;;;;;;1.63;0.95;;;21.20;50.80;;;;;;5039345;28;20159;-63
2023/03/31 00:21:23;;;;;;;1.92;0.90;;;21.20;50.80;;;;;;5041998;28;20122;-63
2023/03/31 00:23:57;;;;;;;1.80;1.00;;;21.20;51.30;;;;;;5040326;28;20025;-63
2023/03/31 00:26:24;;;;;;;1.30;0.88;;;21.20;50.80;;;;;;5039799;28;20033;-62
2023/03/31 00:28:51;;;;;;;1.98;0.95;;;21.20;50.80;;;;;;5036652;28;20039;-63
2023/03/31 00:31:16;;;;;;;1.67;1.00;;;21.20;50.80;;;;;;5037202;28;20041;-63
2023/03/31 00:33:42;;;;;;;1.70;1.00;;;21.20;50.80;;;;;;5038394;28;20025;-63
2023/03/31 00:36:08;;;;;;;1.30;0.90;;;21.20;50.80;;;;;;5041617;28;20037;-63
2023/03/31 00:38:34;;;;;;;1.27;0.90;;;21.20;50.80;;;;;;5034364;28;20107;-63
2023/03/31 00:41:00;;;;;;;1.27;0.90;;;21.20;50.80;;;;;;5069568;28;20033;-63
2023/03/31 00:43:35;;;;;;;1.80;1.13;;;21.20;50.70;;;;;;5037026;28;20044;-62
2023/03/31 00:46:32;;;;;;;1.80;1.00;;;21.20;50.80;;;;;;5038955;28;20032;-62
2023/03/31 00:48:58;;;;;;;1.75;0.90;;;21.20;50.80;;;;;;5024749;28;20108;-63
2023/03/31 00:51:27;;;;;;;1.33;0.80;;;21.20;50.80;;;;;;5036879;28;20489;-63
2023/03/31 00:54:04;;;;;;;2.03;0.98;;;21.20;50.70;;;;;;5039508;28;20469;-63
2023/03/31 00:56:38;;;;;;;1.30;0.80;;;21.20;50.70;;;;;;5039734;28;20426;-63
2023/03/31 00:59:08;;;;;;;1.40;1.00;;;21.20;50.70;;;;;;5036595;28;20052;-63
2023/03/31 01:01:34;;;;;;;1.17;0.73;;;21.20;50.70;;;;;;5038356;28;20033;-63
2023/03/31 01:04:02;;;;;;;1.48;0.98;;;21.20;50.70;;;;;;5039027;28;20625;-63
2023/03/31 01:06:29;;;;;;;1.67;0.90;;;21.20;50.70;;;;;;5038612;28;20067;-62
2023/03/31 01:08:56;;;;;;;1.27;0.90;;;21.20;50.70;;;;;;5040943;28;20040;-62
2023/03/31 01:11:26;;;;;;;0.95;0.80;;;21.20;50.70;;;;;;5039187;28;20030;-63
2023/03/31 01:13:55;;;;;;;1.95;1.00;;;21.20;50.70;;;;;;5038896;28;20039;-62
2023/03/31 01:16:21;;;;;;;1.83;1.10;;;21.20;50.60;;;;;;5039222;28;20013;-63
2023/03/31 01:18:48;;;;;;;1.40;0.98;;;21.20;51.10;;;;;;5039197;28;20026;-63
2023/03/31 01:21:29;;;;;;;1.33;0.90;;;21.20;50.60;;;;;;5039140;28;20029;-62
2023/03/31 01:24:25;;;;;;;1.10;0.80;;;21.20;50.60;;;;;;5042063;28;20532;-63
2023/03/31 01:26:53;;;;;;;1.48;0.90;;;21.10;50.60;;;;;;5040806;28;20041;-63
2023/03/31 01:29:39;;;;;;;1.45;0.90;;;21.10;50.60;;;;;;5038998;28;20028;-63
2023/03/31 01:32:25;;;;;;;1.85;0.90;;;21.10;50.50;;;;;;5042674;28;20024;-63
2023/03/31 01:34:51;;;;;;;1.25;0.90;;;21.10;50.50;;;;;;5044332;28;20384;-63
2023/03/31 01:37:41;;;;;;;1.30;0.90;;;21.10;50.50;;;;;;5040840;28;20032;-63
2023/03/31 01:40:13;;;;;;;0.98;0.77;;;21.20;50.60;;;;;;5042379;28;20099;-63
2023/03/31 01:42:53;;;;;;;1.65;1.00;;;21.10;50.50;;;;;;5042092;28;20485;-63
2023/03/31 01:45:51;;;;;;;1.10;0.77;;;21.10;50.50;;;;;;5042307;28;20063;-63
2023/03/31 01:48:22;;;;;;;0.70;0.70;;;21.10;50.50;;;;;;5039553;28;20124;-62
2023/03/31 01:50:56;;;;;;;1.20;0.80;;;21.10;50.50;;;;;;5042645;28;20029;-63
2023/03/31 01:53:40;;;;;;;0.80;0.77;;;21.10;50.50;;;;;;5044986;28;20033;-63
2023/03/31 01:56:05;;;;;;;1.30;0.82;;;21.10;50.50;;;;;;5043545;28;20132;-63
2023/03/31 01:58:41;;;;;;;1.42;0.95;;;21.10;50.50;;;;;;5044029;28;20018;-62
2023/03/31 02:01:20;;;;;;;1.17;0.82;;;21.10;50.50;;;;;;5043254;28;20042;-63
2023/03/31 02:04:04;;;;;;;1.60;0.90;;;21.10;50.50;;;;;;5040355;28;20029;-63
2023/03/31 02:06:35;;;;;;;1.23;0.77;;;21.10;50.50;;;;;;5042324;28;20547;-63
2023/03/31 02:09:05;;;;;;;1.30;0.90;;;21.10;50.50;;;;;;5042994;28;20112;-63
2023/03/31 02:11:33;;;;;;;1.02;0.80;;;21.10;50.50;;;;;;5041533;28;20079;-62
2023/03/31 02:14:00;;;;;;;0.90;0.75;;;21.10;50.50;;;;;;5037687;28;20112;-63
2023/03/31 02:16:29;;;;;;;1.13;0.73;;;21.10;50.50;;;;;;5040074;28;20028;-63
2023/03/31 02:19:01;;;;;;;1.10;0.80;;;21.10;50.50;;;;;;5041944;28;20529;-62
2023/03/31 02:21:30;;;;;;;1.27;0.90;;;21.10;50.50;;;;;;5044457;28;20086;-63
2023/03/31 02:23:58;;;;;;;1.35;0.80;;;21.10;50.50;;;;;;5040639;28;20489;-63
2023/03/31 02:26:27;;;;;;;1.92;0.95;;;21.10;50.50;;;;;;5038622;28;20025;-63
2023/03/31 02:28:53;;;;;;;;;;;21.10;50.40;;;;;;5045217;28;20040;-63
2023/03/31 02:31:38;;;;;;;1.55;0.98;;;21.10;50.40;;;;;;5042552;28;19912;-62
2023/03/31 02:34:03;;;;;;;0.90;0.70;;;21.10;50.50;;;;;;5042676;28;20036;-63
2023/03/31 02:36:29;;;;;;;1.55;0.90;;;21.00;50.40;;;;;;5043014;28;20029;-63
2023/03/31 02:39:00;;;;;;;1.45;0.80;;;21.00;50.40;;;;;;5040495;28;20029;-63
2023/03/31 02:41:27;;;;;;;1.10;0.80;;;21.10;50.40;;;;;;5039481;28;20115;-63
2023/03/31 02:43:52;;;;;;;0.90;0.70;;;21.00;50.40;;;;;;5041966;28;20094;-63
2023/03/31 02:46:18;;;;;;;1.05;0.80;;;21.00;50.40;;;;;;5041982;28;20485;-63
2023/03/31 02:48:51;;;;;;;1.40;0.90;;;21.00;50.40;;;;;;5039686;28;20034;-63
2023/03/31 02:51:28;;;;;;;1.15;0.80;;;21.00;50.40;;;;;;5043297;28;20032;-63
2023/03/31 02:54:04;;;;;;;0.75;0.70;;;21.00;50.40;;;;;;5039812;28;20029;-64
2023/03/31 02:56:36;;;;;;;1.38;0.90;;;21.00;50.40;;;;;;5042619;28;20025;-64
2023/03/31 02:59:20;;;;;;;1.20;0.80;;;21.00;50.40;;;;;;5040403;28;20025;-63
2023/03/31 03:02:23;;;;;;;1.02;0.80;;;21.00;50.40;;;;;;5043849;28;20025;-64
2023/03/31 03:05:26;;;;;;;1.10;0.80;;;21.00;50.40;;;;;;5042031;28;20037;-63
2023/03/31 03:08:16;;;;;;;1.27;0.88;;;21.00;50.40;;;;;;5041078;28;20433;-64
2023/03/31 03:10:44;;;;;;;0.90;0.70;;;21.00;50.30;;;;;;5042933;28;20025;-64
2023/03/31 03:13:22;;;;;;;1.13;0.80;;;21.00;50.40;;;;;;5042711;28;20374;-64
2023/03/31 03:16:02;;;;;;;1.10;0.80;;;21.00;50.40;;;;;;5041327;28;20025;-65
2023/03/31 03:18:28;;;;;;;0.85;0.70;;;21.00;50.40;;;;;;5038097;28;20028;-64
2023/03/31 03:20:54;;;;;;;1.00;0.70;;;21.00;50.40;;;;;;5038849;28;20029;-64
2023/03/31 03:23:21;;;;;;;0.98;0.70;;;21.00;50.40;;;;;;5041301;28;20063;-64
2023/03/31 03:25:47;;;;;;;1.10;0.77;;;21.00;50.30;;;;;;5035528;28;20108;-63
2023/03/31 03:28:12;;;;;;;1.13;0.80;;;21.00;50.40;;;;;;5044292;28;20516;-64
2023/03/31 03:30:38;;;;;;;0.95;0.70;;;21.00;50.40;;;;;;5038020;28;20030;-64
2023/03/31 03:33:05;;;;;;;1.20;0.75;;;21.00;50.40;;;;;;5040110;28;20057;-64
2023/03/31 03:35:32;;;;;;;1.33;0.90;;;21.00;50.30;;;;;;5041100;28;20021;-64
2023/03/31 03:37:57;;;;;;;0.80;0.70;;;21.00;50.30;;;;;;5043541;28;20103;-64
2023/03/31 03:40:23;;;;;;;1.20;1.00;;;21.00;50.30;;;;;;5040708;28;20108;-64
2023/03/31 03:42:49;;;;;;;1.10;0.70;;;21.00;50.40;;;;;;5040711;28;20099;-64
2023/03/31 03:45:14;;;;;;;1.10;0.80;;;21.00;50.40;;;;;;5039758;28;20496;-64
2023/03/31 03:47:40;;;;;;;1.20;0.90;;;20.90;50.30;;;;;;5036619;28;20112;-63
2023/03/31 03:50:06;;;;;;;1.38;0.95;;;21.00;50.40;;;;;;5041018;28;20512;-63
2023/03/31 03:52:32;;;;;;;1.20;0.80;;;21.00;50.40;;;;;;5043030;28;20033;-63
2023/03/31 03:54:57;;;;;;;1.10;0.70;;;21.00;50.30;;;;;;5036898;28;20036;-64
2023/03/31 03:57:23;;;;;;;1.17;0.80;;;20.90;50.30;;;;;;5038421;28;20482;-64
2023/03/31 03:59:48;;;;;;;0.90;0.80;;;20.90;50.30;;;;;;5038779;28;20044;-63
2023/03/31 04:02:14;;;;;;;1.38;0.90;;;20.90;50.30;;;;;;5040003;28;20036;-63
2023/03/31 04:04:40;;;;;;;1.52;0.90;;;20.90;50.30;;;;;;5037395;28;20499;-63
2023/03/31 04:07:06;;;;;;;0.85;0.70;;;20.90;50.30;;;;;;5046005;28;20457;-63
2023/03/31 04:09:31;;;;;;;1.20;0.60;;;20.90;50.40;;;;;;5042159;28;20057;-64
2023/03/31 04:11:57;;;;;;;0.85;0.70;;;20.90;50.40;;;;;;5039768;28;20100;-63
2023/03/31 04:14:24;;;;;;;0.82;0.63;;;20.90;50.40;;;;;;5038374;28;20017;-63
2023/03/31 04:16:50;;;;;;;1.77;1.00;;;20.90;50.30;;;;;;5042944;28;20376;-63
2023/03/31 04:19:20;;;;;;;0.93;0.73;;;20.90;50.40;;;;;;5038365;28;20028;-63
2023/03/31 04:21:49;;;;;;;0.73;0.70;;;20.90;50.30;;;;;;5040373;28;20025;-63
2023/03/31 04:24:20;;;;;;;1.02;0.77;;;20.90;50.30;;;;;;5040822;28;20468;-63
2023/03/31 04:26:49;;;;;;;1.10;0.70;;;20.90;50.30;;;;;;5039860;28;20131;-64
2023/03/31 04:29:15;;;;;;;1.08;0.75;;;20.90;50.30;;;;;;5039626;28;20060;-63
2023/03/31 04:31:42;;;;;;;1.15;0.80;;;20.90;50.30;;;;;;5038515;28;20044;-64
2023/03/31 04:34:12;;;;;;;1.38;0.90;;;20.90;50.30;;;;;;5037655;28;20053;-64
2023/03/31 04:36:41;;;;;;;1.35;0.75;;;20.90;50.80;;;;;;5038728;28;20031;-63
2023/03/31 04:39:09;;;;;;;0.88;0.65;;;20.90;50.30;;;;;;5040061;28;20076;-63
2023/03/31 04:41:35;;;;;;;1.33;0.70;;;20.90;50.30;;;;;;5038621;28;20028;-63
2023/03/31 04:44:01;;;;;;;1.73;0.90;;;20.90;50.30;;;;;;5036905;28;20032;-63
2023/03/31 04:46:26;;;;;;;1.17;0.80;;;20.90;50.20;;;;;;5041897;28;20033;-63
2023/03/31 04:48:52;;;;;;;1.33;0.80;;;20.90;50.20;;;;;;5039862;28;20385;-64
2023/03/31 04:51:19;;;;;;;1.00;0.80;;;20.90;50.20;;;;;;5038322;28;20041;-64
2023/03/31 04:53:45;;;;;;;1.20;0.70;;;20.90;50.20;;;;;;5040733;28;20030;-64
2023/03/31 04:56:11;;;;;;;1.45;0.70;;;20.90;50.20;;;;;;5037929;28;20068;-63
2023/03/31 04:58:37;;;;;;;1.30;0.80;;;20.90;50.20;;;;;;5037222;28;20152;-65
2023/03/31 05:01:06;;;;;;;1.50;1.10;;;20.90;50.20;;;;;;5035666;28;20533;-64
2023/03/31 05:03:33;;;;;;;0.70;0.70;;;20.90;50.20;;;;;;5041056;28;20025;-64
2023/03/31 05:05:59;;;;;;;1.10;0.73;;;20.90;50.20;;;;;;5039552;28;20139;-64
2023/03/31 05:08:26;;;;;;;1.08;0.80;;;20.90;50.70;;;;;;5037824;28;20053;-64
2023/03/31 05:10:52;;;;;;;1.20;0.85;;;20.90;50.20;;;;;;5039850;28;20302;-65
2023/03/31 05:13:18;;;;;;;1.58;0.90;;;20.90;50.70;;;;;;5040003;28;20037;-65
2023/03/31 05:15:44;;;;;;;1.25;0.80;;;20.80;50.20;;;;;;5039445;28;20516;-65
2023/03/31 05:18:10;;;;;;;1.65;0.80;;;20.80;50.20;;;;;;5040760;28;20100;-65
2023/03/31 05:20:35;;;;;;;1.30;0.80;;;20.90;50.20;;;;;;5042002;28;20109;-65
2023/03/31 05:23:01;;;;;;;1.25;0.88;;;20.90;50.20;;;;;;5038143;28;20025;-64
2023/03/31 05:25:31;;;;;;;1.02;0.70;;;20.90;50.20;;;;;;5039190;28;20037;-64
2023/03/31 05:27:58;;;;;;;1.02;0.73;;;20.80;50.20;;;;;;5038338;28;20041;-64
2023/03/31 05:30:25;;;;;;;1.45;0.80;;;20.90;50.20;;;;;;5040394;28;20036;-65
2023/03/31 05:32:51;;;;;;;1.17;0.85;;;20.80;50.20;;;;;;5037337;28;20521;-65
2023/03/31 05:35:16;;;;;;;1.15;0.80;;;20.90;50.20;;;;;;5038417;28;20105;-65
2023/03/31 05:37:42;;;;;;;1.27;0.80;;;20.80;50.20;;;;;;5034904;28;20965;-64
2023/03/31 05:40:08;;;;;;;1.48;0.85;;;20.80;50.20;;;;;;5038134;28;20037;-65
2023/03/31 05:42:35;;;;;;;1.75;0.88;;;20.80;50.20;;;;;;5039707;28;20029;-65
2023/03/31 05:45:00;;;;;;;1.63;0.90;;;20.80;50.20;;;;;;5042386;28;20056;-65
2023/03/31 05:47:26;;;;;;;1.65;0.90;;;20.80;50.20;;;;;;5039657;28;20060;-65
2023/03/31 05:49:52;;;;;;;1.42;0.90;;;20.80;50.30;;;;;;5038876;28;20463;-65
2023/03/31 05:52:17;;;;;;;1.23;0.80;;;20.90;50.30;;;;;;5038665;28;20393;-65
2023/03/31 05:54:43;;;;;;;1.83;1.00;;;20.80;50.20;;;;;;5038124;28;20025;-64
2023/03/31 05:57:09;;;;;;;1.30;0.90;;;20.90;50.30;;;;;;5036574;28;20029;-64
2023/03/31 05:59:35;;;;;;;1.50;0.90;;;20.90;50.30;;;;;;5037734;28;20454;-65
2023/03/31 06:02:01;;;;;;;1.65;1.00;;;20.80;50.30;;;;;;5038098;28;20104;-65
2023/03/31 06:04:27;;;;;;;1.30;0.80;;;20.90;50.30;;;;;;5036179;28;20055;-64
2023/03/31 06:06:54;;;;;;;3.22;1.27;;;20.80;50.30;;;;;;5035966;28;20474;-64
2023/03/31 06:09:20;;;;;;;1.25;0.82;;;20.80;50.30;;;;;;5042277;28;20469;-64
2023/03/31 06:11:46;;;;;;;1.30;0.98;;;20.80;50.30;;;;;;5042444;28;20472;-64
2023/03/31 06:14:12;;;;;;;2.45;1.17;;;20.80;50.30;;;;;;5039950;28;20078;-65
2023/03/31 06:16:38;;;;;;;1.15;0.70;;;20.80;50.30;;;;;;5041020;28;20036;-65
2023/03/31 06:19:03;;;;;;;2.00;1.10;;;20.80;50.30;;;;;;5039410;28;20029;-64
2023/03/31 06:21:29;;;;;;;2.35;0.90;;;20.80;50.30;;;;;;5042387;28;20423;-65
2023/03/31 06:23:57;;;;;;;2.30;0.90;;;20.80;50.40;;;;;;5040250;28;20034;-64
2023/03/31 06:26:23;;;;;;;1.80;1.00;;;20.80;50.30;;;;;;5040421;28;20060;-64
2023/03/31 06:28:49;;;;;;;2.40;1.05;;;20.80;50.30;;;;;;5040636;28;20030;-63
2023/03/31 06:31:20;;;;;;;1.65;0.90;;;20.80;50.30;;;;;;5043208;28;20350;-64
2023/03/31 06:33:46;;;;;;;2.05;1.05;;;20.80;50.90;;;;;;5040885;28;20021;-64
2023/03/31 06:36:14;;;;;;;2.08;1.17;;;20.80;50.40;;;;;;5041251;28;20100;-64
2023/03/31 06:38:40;;;;;;;1.02;0.80;;;20.80;50.40;;;;;;5041749;28;20029;-64
2023/03/31 06:41:07;;;;;;;2.42;1.02;;;20.80;50.40;;;;;;5042581;28;20530;-64
2023/03/31 06:43:33;;;;;;;2.03;0.90;;;20.80;50.40;;;;;;5037670;28;20033;-64
2023/03/31 06:45:59;;;;;;;2.00;1.10;;;20.80;50.40;;;;;;5036719;28;20029;-64
2023/03/31 06:48:26;;;;;;;2.47;1.30;;;20.80;50.30;;;;;;5039949;28;20474;-63
2023/03/31 06:50:58;;;;;;;1.17;0.82;;;20.80;50.30;;;;;;5043984;28;20034;-64
2023/03/31 06:53:24;;;;;;;1.73;1.00;;;20.80;50.90;;;;;;5041186;28;20029;-64
2023/03/31 06:55:50;;;;;;;2.75;1.00;;;20.80;50.40;;;;;;5041984;28;20075;-64
2023/03/31 06:58:15;;;;;;;2.03;1.00;;;20.80;50.30;;;;;;5041806;28;20021;-64
2023/03/31 07:00:41;;;;;;;1.27;0.90;;;20.80;50.30;;;;;;5042603;28;20030;-63
2023/03/31 07:03:07;;;;;;;2.13;0.90;;;20.80;50.40;;;;;;5043800;28;20061;-64
2023/03/31 07:05:33;;;;;;;1.05;0.80;;;20.80;50.40;;;;;;5039538;28;20094;-64
2023/03/31 07:08:00;;;;;;;2.05;1.00;;;20.80;50.40;;;;;;5042305;28;20060;-64
2023/03/31 07:10:28;;;;;;;1.67;0.90;;;20.80;50.40;;;;;;5042210;28;20194;-64
2023/03/31 07:12:53;;;;;;;2.33;0.90;;;20.80;50.40;;;;;;5041204;28;20043;-64
2023/03/31 07:15:20;;;;;;;1.80;0.93;;;20.80;50.40;;;;;;5041932;28;20395;-64
2023/03/31 07:17:49;;;;;;;1.75;0.90;;;20.80;50.40;;;;;;5040747;28;20381;-63
2023/03/31 07:20:17;;;;;;;2.05;1.05;;;20.80;50.40;;;;;;5040542;28;20025;-64
2023/03/31 07:22:45;;;;;;;1.77;0.98;;;20.80;50.40;;;;;;5039703;28;20025;-63
2023/03/31 07:25:12;;;;;;;1.77;1.10;;;20.80;50.30;;;;;;5041434;28;20025;-64
2023/03/31 07:27:38;;;;;;;2.45;0.90;;;20.80;50.90;;;;;;5042484;28;20120;-64
2023/03/31 07:30:09;;;;;;;1.90;1.00;;;20.80;50.40;;;;;;5037157;28;20120;-63
2023/03/31 07:32:38;;;;;;;2.00;1.02;;;20.80;50.40;;;;;;5039792;28;20037;-64
2023/03/31 07:35:05;;;;;;;1.55;0.93;;;20.80;50.40;;;;;;5039964;28;20017;-64
2023/03/31 07:37:40;;;;;;;1.88;0.98;;;20.80;50.30;;;;;;5039071;28;20032;-64
2023/03/31 07:40:06;;;;;;;1.58;0.90;;;20.80;50.30;;;;;;5038902;28;20036;-64
2023/03/31 07:42:33;;;;;;;1.55;1.10;;;20.80;50.30;;;;;;5039894;28;20020;-64
2023/03/31 07:44:59;;;;;;;1.23;0.73;;;20.80;50.30;;;;;;5040435;28;20144;-65
2023/03/31 07:47:25;;;;;;;1.90;1.02;;;20.80;50.40;;;;;;5041239;28;20500;-64
2023/03/31 07:49:50;;;;;;;1.42;0.93;;;20.80;50.40;;;;;;5040018;28;20029;-65
2023/03/31 07:52:18;;;;;;;1.10;0.90;;;20.80;50.40;;;;;;5040888;28;20025;-64
2023/03/31 07:54:44;;;;;;;1.58;0.95;;;20.80;50.40;;;;;;5040008;28;20689;-64
2023/03/31 07:57:10;;;;;;;2.38;1.02;;;20.80;50.30;;;;;;5042074;28;20061;-65
2023/03/31 07:59:36;;;;;;;1.95;0.90;;;20.80;50.30;;;;;;5043904;28;20118;-64
2023/03/31 08:02:01;;;;;;;1.60;0.93;;;20.80;50.40;;;;;;5040684;28;20154;-65
2023/03/31 08:04:27;;;;;;;2.08;1.00;;;20.80;50.40;;;;;;5039623;28;20499;-64
2023/03/31 08:06:53;;;;;;;2.20;1.10;;;20.80;50.40;;;;;;5036850;28;20025;-64
2023/03/31 08:09:21;;;;;;;1.27;0.85;;;20.80;50.40;;;;;;5038708;28;20029;-65
2023/03/31 08:11:47;;;;;;;2.00;1.00;;;20.80;50.40;;;;;;5038909;28;20158;-64
2023/03/31 08:14:12;;;;;;;1.88;1.10;;;20.80;50.40;;;;;;5039016;28;20498;-64
2023/03/31 08:16:38;;;;;;;1.73;1.00;;;20.80;50.40;;;;;;5037840;28;20043;-63
2023/03/31 08:19:03;;;;;;;1.65;0.85;;;20.80;50.40;;;;;;5036008;28;20022;-64
2023/03/31 08:21:30;;;;;;;1.92;1.02;;;20.80;50.40;;;;;;5041183;28;20036;-64
2023/03/31 08:23:55;;;;;;;1.83;1.13;;;20.80;50.40;;;;;;5039047;28;20021;-64
2023/03/31 08:26:23;;;;;;;1.88;1.00;;;20.80;50.40;;;;;;5040284;28;20428;-64
2023/03/31 08:28:49;;;;;;;1.35;0.90;;;20.80;50.30;;;;;;5040897;28;20494;-64
2023/03/31 08:31:16;;;;;;;2.40;1.20;;;20.80;50.40;;;;;;5036925;28;20038;-64
2023/03/31 08:33:41;;;;;;;2.63;1.20;;;20.80;50.40;;;;;;5040552;28;20032;-65
2023/03/31 08:36:09;;;;;;;2.05;1.05;;;20.80;50.40;;;;;;5038894;28;20124;-64
2023/03/31 08:38:40;;;;;;;2.63;1.00;;;20.80;50.30;;;;;;5039909;28;20018;-64
2023/03/31 08:41:15;;;;;;;2.28;1.08;;;20.80;50.40;;;;;;5040380;28;20022;-64
2023/03/31 08:43:45;;;;;;;2.13;1.23;;;20.80;50.30;;;;;;5038391;28;20381;-64
2023/03/31 08:46:12;;;;;;;2.80;1.30;;;20.80;50.40;;;;;;5039518;28;20033;-64
2023/03/31 08:48:47;;;;;;;1.77;0.90;;;20.80;50.30;;;;;;5040384;28;20033;-64
2023/03/31 08:51:32;;;;;;;2.17;1.08;;;20.80;50.40;;;;;;5039896;28;20056;-64
2023/03/31 08:54:26;;;;;;;1.23;0.80;;;20.80;50.40;;;;;;5038740;28;20032;-65
2023/03/31 08:56:52;;;;;;;1.80;1.10;;;20.80;50.30;;;;;;5038590;28;20399;-64
2023/03/31 08:59:32;;;;;;;1.98;1.10;;;20.80;50.30;;;;;;5039707;28;20125;-65
2023/03/31 09:02:11;;;;;;;2.40;1.20;;;20.80;50.30;;;;;;5036916;28;20044;-65
2023/03/31 09:05:25;;;;;;;2.03;1.00;;;20.80;50.30;;;;;;5037688;28;20021;-65
2023/03/31 09:07:56;;;;;;;1.50;1.00;;;20.80;50.30;;;;;;5021995;28;20045;-65
2023/03/31 09:10:42;;;;;;;1.73;1.17;;;20.80;50.30;;;;;;5037082;28;20032;-64
2023/03/31 09:13:36;;;;;;;1.50;1.00;;;20.80;50.30;;;;;;5039306;28;20033;-64
2023/03/31 09:16:25;;;;;;;2.00;1.20;;;20.80;50.30;;;;;;5038830;28;20023;-63
2023/03/31 09:18:58;;;;;;;1.87;1.10;;;20.80;50.30;;;;;;5036961;28;20033;-64
2023/03/31 09:21:26;;;;;;;1.88;1.00;;;20.80;50.30;;;;;;5038370;28;20032;-64
2023/03/31 09:23:56;;;;;;;1.50;1.00;;;20.90;50.40;;;;;;5038425;28;20025;-64
2023/03/31 09:26:42;;;;;;;1.58;1.00;;;20.90;50.40;;;;;;5039689;28;20101;-64
2023/03/31 09:29:49;;;;;;;1.70;1.00;;;20.90;50.40;;;;;;5038006;28;20136;-65
2023/03/31 09:32:17;;;;;;;1.20;0.80;;;20.90;50.50;;;;;;5007273;28;20121;-64
2023/03/31 09:34:45;;;;;;;2.03;1.20;;;20.90;50.70;;;;;;5036751;28;20044;-64
2023/03/31 09:37:12;;;;;;;1.75;0.90;;;20.90;50.40;;;;;;5036905;28;20028;-65
2023/03/31 09:39:39;;;;;;;1.60;1.00;;;20.90;50.50;;;;;;5036671;28;20026;-65
2023/03/31 09:42:06;;;;;;;1.88;1.13;;;20.90;50.50;;;;;;5039051;28;20032;-65
2023/03/31 09:44:39;;;;;;;1.60;1.20;;;20.90;50.50;;;;;;5042594;28;20345;-64
2023/03/31 09:47:10;;;;;;;1.73;1.10;;;20.90;50.60;;;;;;5040551;28;20026;-65
2023/03/31 09:49:37;;;;;;;1.90;1.05;;;20.90;50.60;;;;;;5042587;28;20029;-64
2023/03/31 09:52:14;;;;;;;1.23;0.90;;;20.90;50.60;;;;;;5040970;28;20421;-64
2023/03/31 09:54:49;;;;;;;1.90;1.20;;;20.90;50.60;;;;;;5042159;28;20029;-64
2023/03/31 09:57:26;;;;;;;1.65;1.10;;;20.90;50.70;;;;;;5043937;28;20485;-65
2023/03/31 09:59:52;;;;;;;2.55;1.30;;;20.90;50.70;;;;;;5043062;28;20451;-64
2023/03/31 10:02:24;;;;;;;2.15;1.33;;;20.80;50.60;;;;;;5043685;28;20056;-64
2023/03/31 10:04:50;;;;;;;1.63;1.08;;;20.90;50.70;;;;;;5040208;28;20033;-64
2023/03/31 10:07:21;;;;;;;2.00;1.10;;;20.80;50.70;;;;;;5037154;28;20076;-64
2023/03/31 10:09:48;;;;;;;2.80;1.20;;;20.90;50.80;;;;;;5039621;28;20033;-64
2023/03/31 10:12:23;;;;;;;2.15;1.10;;;20.90;50.80;;;;;;5043600;28;20037;-64
2023/03/31 10:14:51;;;;;;;2.08;1.20;;;20.80;50.80;;;;;;5042640;28;20104;-64
2023/03/31 10:17:19;;;;;;;1.98;1.13;;;20.90;50.80;;;;;;5043378;28;20508;-64
2023/03/31 10:19:51;;;;;;;1.73;1.10;;;20.90;50.80;;;;;;5049703;28;20021;-64
2023/03/31 10:22:20;;;;;;;2.40;1.48;;;20.80;50.80;;;;;;5042332;28;20037;-64
2023/03/31 10:24:49;;;;;;;1.70;1.10;;;20.80;50.80;;;;;;5041082;28;20064;-64
2023/03/31 10:27:23;;;;;;;3.08;1.20;;;20.80;50.80;;;;;;5042554;28;20506;-64
2023/03/31 10:30:03;;;;;;;2.45;1.30;;;20.90;50.80;;;;;;5041300;28;20393;-64
2023/03/31 10:32:38;;;;;;;1.98;1.20;;;20.80;50.80;;;;;;5042608;28;20083;-64
2023/03/31 10:35:23;;;;;;;2.10;1.20;;;20.90;50.80;;;;;;5043653;28;20021;-64
2023/03/31 10:37:53;;;;;;;1.58;1.00;;;20.80;50.80;;;;;;5038628;28;20370;-64
2023/03/31 10:40:23;;;;;;;1.63;1.05;;;20.90;50.80;;;;;;5043664;28;20038;-63
2023/03/31 10:43:03;;;;;;;1.40;0.90;;;20.90;50.80;;;;;;5044520;28;20040;-63
2023/03/31 10:45:35;;;;;;;1.73;1.00;;;20.90;50.80;;;;;;5043597;28;20033;-64
2023/03/31 10:48:01;;;;;;;1.42;1.00;;;20.90;50.80;;;;;;5043866;28;20037;-63
2023/03/31 10:50:31;;;;;;;1.75;1.00;;;20.80;50.80;;;;;;5039265;28;20480;-64
2023/03/31 10:53:06;;;;;;;1.58;1.00;;;20.90;50.80;;;;;;5043933;28;20361;-64
2023/03/31 10:55:45;;;;;;;1.77;0.90;;;20.90;50.80;;;;;;5041175;28;20025;-63
2023/03/31 10:58:16;;;;;;;1.65;1.08;;;20.90;50.80;;;;;;5041288;28;20025;-64
2023/03/31 11:01:03;;;;;;;1.50;0.93;;;20.90;50.80;;;;;;5042604;28;20032;-64
2023/03/31 11:03:59;;;;;;;1.80;1.08;;;20.90;50.80;;;;;;5040135;28;20508;-64
2023/03/31 11:06:47;;;;;;;1.58;1.00;;;20.90;50.80;;;;;;5041179;28;20473;-63
2023/03/31 11:09:42;;;;;;;2.20;1.17;;;20.80;50.70;;;;;;5042313;28;20026;-64
2023/03/31 11:12:18;;;;;;;1.77;1.00;;;20.80;50.70;;;;;;5041997;28;20021;-63
2023/03/31 11:15:07;;;;;;;1.58;1.05;;;20.80;50.70;;;;;;5042108;28;20025;-64
2023/03/31 11:17:53;;;;;;;;;;;20.90;50.70;;;;;;5042147;28;20436;-64
2023/03/31 11:21:08;;;;;;;1.75;1.08;;;20.80;50.60;;;;;;5041825;28;20382;-63
2023/03/31 11:23:41;;;;;;;2.35;1.00;;;20.90;50.60;;;;;;5018305;28;20025;-64
2023/03/31 11:26:20;;;;;;;1.90;1.00;;;20.90;50.50;;;;;;5041058;28;20028;-63
2023/03/31 11:28:46;;;;;;;1.50;0.85;;;20.90;50.50;;;;;;5040641;28;20021;-63
2023/03/31 11:31:30;;;;;;;1.30;0.80;;;20.90;50.50;;;;;;5042017;28;20047;-64
2023/03/31 11:34:19;;;;;;;1.38;0.93;;;20.90;50.40;;;;;;5041083;28;20481;-64
2023/03/31 11:37:06;;;;;;;1.10;0.70;;;20.90;50.30;;;;;;5039004;28;20036;-64
2023/03/31 11:39:58;;;;;;;2.30;0.90;;;20.90;50.40;;;;;;5039017;28;20444;-64
2023/03/31 11:42:35;;;;;;;1.38;0.90;;;20.90;50.30;;;;;;5037387;28;20532;-64
2023/03/31 11:45:18;;;;;;;1.33;0.90;;;20.90;50.30;;;;;;5040198;28;20112;-64
2023/03/31 11:47:48;;;;;;;1.40;0.90;;;21.00;50.30;;;;;;5039998;28;20021;-64
2023/03/31 11:50:37;;;;;;;2.28;0.90;;;21.00;50.30;;;;;;5038917;28;20040;-64
2023/03/31 11:53:11;;;;;;;1.65;0.90;;;21.00;50.30;;;;;;5040802;28;20024;-64
2023/03/31 11:55:38;;;;;;;1.30;0.80;;;21.00;50.30;;;;;;5039183;28;20489;-64
2023/03/31 11:58:22;;;;;;;1.83;1.10;;;21.00;50.30;;;;;;5038781;28;20049;-64
2023/03/31 12:00:58;;;;;;;1.27;0.90;;;21.00;50.30;;;;;;5041884;28;20029;-64
2023/03/31 12:03:36;;;;;;;1.50;0.90;;;21.00;50.30;;;;;;5040688;28;20032;-64
2023/03/31 12:06:21;;;;;;;2.00;1.10;;;21.00;50.20;;;;;;5039720;28;20025;-64
2023/03/31 12:09:05;;;;;;;1.60;1.00;;;21.00;50.20;;;;;;5046182;28;20458;-64
2023/03/31 12:11:39;;;;;;;2.45;1.02;;;21.00;50.20;;;;;;5043679;28;20037;-64
2023/03/31 12:14:46;;;;;;;1.70;0.82;;;21.00;50.20;;;;;;5039195;28;20043;-64
2023/03/31 12:17:17;;;;;;;1.50;0.90;;;21.00;50.20;;;;;;5037252;28;20029;-64
2023/03/31 12:20:01;;;;;;;1.48;0.80;;;21.00;50.20;;;;;;5040567;28;20028;-64
2023/03/31 12:22:42;;;;;;;2.05;1.00;;;21.00;50.70;;;;;;5039038;28;20025;-65
2023/03/31 12:25:13;;;;;;;1.10;0.80;;;21.00;50.10;;;;;;5041469;28;20500;-64
2023/03/31 12:27:40;;;;;;;2.15;0.90;;;21.00;50.10;;;;;;5038239;28;20044;-64
2023/03/31 12:30:10;;;;;;;1.05;0.70;;;21.00;50.10;;;;;;5039276;28;20036;-64
2023/03/31 12:32:42;;;;;;;1.35;0.80;;;21.00;50.10;;;;;;5040189;28;20055;-63
2023/03/31 12:35:22;;;;;;;0.88;0.60;;;21.00;50.20;;;;;;5040194;28;20037;-64
2023/03/31 12:38:21;;;;;;;1.52;0.95;;;21.00;50.10;;;;;;5054263;28;20025;-64
2023/03/31 12:41:18;;;;;;;1.75;0.90;;;21.00;50.10;;;;;;5040183;28;20083;-64
2023/03/31 12:44:26;;;;;;;2.40;1.00;;;21.10;50.20;;;;;;5039156;28;20064;-64
2023/03/31 12:47:17;;;;;;;2.10;0.88;;;21.10;50.10;;;;;;5038448;28;20037;-64
2023/03/31 12:50:01;;;;;;;3.10;1.00;;;21.00;50.10;;;;;;5035768;28;20017;-65
2023/03/31 12:52:48;;;;;;;2.03;0.95;;;21.10;50.10;;;;;;5038428;28;20033;-64
2023/03/31 12:55:39;;;;;;;2.25;1.33;;;21.00;50.00;;;;;;5037122;28;20017;-64
2023/03/31 12:58:23;;;;;;;1.80;0.90;;;21.10;50.10;;;;;;5038205;28;20540;-64
2023/03/31 13:01:20;;;;;;;1.90;0.85;;;21.10;50.10;;;;;;5039436;28;20497;-64
2023/03/31 13:03:52;;;;;;;1.85;0.93;;;21.10;50.00;;;;;;5039625;28;20068;-64
2023/03/31 13:06:27;;;;;;;2.00;0.77;;;21.10;50.10;;;;;;5039123;28;20020;-64
2023/03/31 13:09:07;;;;;;;1.35;0.88;;;21.10;50.00;;;;;;5039364;28;20493;-64
2023/03/31 13:11:33;;;;;;;1.92;0.95;;;21.10;50.00;;;;;;5037639;28;20425;-64
2023/03/31 13:14:01;;;;;;;1.45;0.88;;;21.10;50.00;;;;;;5039282;28;20050;-64